sensor_id;sensor_type;location;lat;lon;timestamp;P1;durP1;ratioP1;P2;durP2;ratioP2
68225;SDS011;55045;49.410;11.030;2022-07-23T00:02:45;14.15;;;8.75;;
68225;SDS011;55045;49.410;11.030;2022-07-23T00:05:49;14.43;;;8.65;;
68225;SDS011;55045;49.410;11.030;2022-07-23T00:08:54;18.23;;;9.23;;
68225;SDS011;55045;49.410;11.030;2022-07-23T00:11:57;16.85;;;8.60;;
68225;SDS011;55045;49.410;11.030;2022-07-23T00:15:00;13.27;;;8.57;;
68225;SDS011;55045;49.410;11.030;2022-07-23T00:18:04;12.07;;;8.30;;
68225;SDS011;55045;49.410;11.030;2022-07-23T00:21:08;19.23;;;9.55;;
68225;SDS011;55045;49.410;11.030;2022-07-23T00:24:12;12.77;;;8.07;;
68225;SDS011;55045;49.410;11.030;2022-07-23T00:27:16;17.48;;;9.00;;
68225;SDS011;55045;49.410;11.030;2022-07-23T00:30:19;14.60;;;9.00;;
68225;SDS011;55045;49.410;11.030;2022-07-23T00:33:22;11.68;;;8.73;;
68225;SDS011;55045;49.410;11.030;2022-07-23T00:36:25;15.75;;;10.07;;
68225;SDS011;55045;49.410;11.030;2022-07-23T00:39:30;15.18;;;9.10;;
68225;SDS011;55045;49.410;11.030;2022-07-23T00:42:34;12.68;;;8.23;;
68225;SDS011;55045;49.410;11.030;2022-07-23T00:45:37;14.80;;;8.73;;
68225;SDS011;55045;49.410;11.030;2022-07-23T00:48:40;15.68;;;9.05;;
68225;SDS011;55045;49.410;11.030;2022-07-23T00:51:44;12.73;;;9.00;;
68225;SDS011;55045;49.410;11.030;2022-07-23T00:54:51;18.52;;;9.68;;
68225;SDS011;55045;49.410;11.030;2022-07-23T00:57:57;14.85;;;9.98;;
68225;SDS011;55045;49.410;11.030;2022-07-23T01:01:01;14.27;;;9.27;;
68225;SDS011;55045;49.410;11.030;2022-07-23T01:04:05;14.30;;;9.40;;
68225;SDS011;55045;49.410;11.030;2022-07-23T01:07:08;14.35;;;8.75;;
68225;SDS011;55045;49.410;11.030;2022-07-23T01:10:14;12.43;;;9.27;;
68225;SDS011;55045;49.410;11.030;2022-07-23T01:13:40;20.08;;;9.55;;
68225;SDS011;55045;49.410;11.030;2022-07-23T01:16:44;14.48;;;8.95;;
68225;SDS011;55045;49.410;11.030;2022-07-23T01:19:49;14.23;;;9.32;;
68225;SDS011;55045;49.410;11.030;2022-07-23T01:23:00;17.23;;;9.40;;
68225;SDS011;55045;49.410;11.030;2022-07-23T01:26:04;15.15;;;9.45;;
68225;SDS011;55045;49.410;11.030;2022-07-23T01:29:07;14.20;;;9.60;;
68225;SDS011;55045;49.410;11.030;2022-07-23T01:32:11;13.32;;;9.25;;
68225;SDS011;55045;49.410;11.030;2022-07-23T01:35:14;14.77;;;10.43;;
68225;SDS011;55045;49.410;11.030;2022-07-23T01:38:19;14.75;;;9.35;;
68225;SDS011;55045;49.410;11.030;2022-07-23T01:41:23;16.10;;;10.95;;
68225;SDS011;55045;49.410;11.030;2022-07-23T01:44:28;14.68;;;9.88;;
68225;SDS011;55045;49.410;11.030;2022-07-23T01:47:32;12.40;;;9.18;;
68225;SDS011;55045;49.410;11.030;2022-07-23T01:50:35;14.38;;;11.07;;
68225;SDS011;55045;49.410;11.030;2022-07-23T01:53:48;16.52;;;11.20;;
68225;SDS011;55045;49.410;11.030;2022-07-23T01:56:51;15.50;;;10.57;;
68225;SDS011;55045;49.410;11.030;2022-07-23T01:59:55;14.05;;;9.77;;
68225;SDS011;55045;49.410;11.030;2022-07-23T02:02:59;17.40;;;10.05;;
68225;SDS011;55045;49.410;11.030;2022-07-23T02:06:03;16.50;;;10.40;;
68225;SDS011;55045;49.410;11.030;2022-07-23T02:09:07;16.00;;;9.85;;
68225;SDS011;55045;49.410;11.030;2022-07-23T02:12:11;13.82;;;9.27;;
68225;SDS011;55045;49.410;11.030;2022-07-23T02:15:14;14.07;;;10.23;;
68225;SDS011;55045;49.410;11.030;2022-07-23T02:18:17;13.30;;;9.20;;
68225;SDS011;55045;49.410;11.030;2022-07-23T02:21:21;12.93;;;9.63;;
68225;SDS011;55045;49.410;11.030;2022-07-23T02:24:26;14.02;;;9.18;;
68225;SDS011;55045;49.410;11.030;2022-07-23T02:27:29;14.32;;;9.85;;
68225;SDS011;55045;49.410;11.030;2022-07-23T02:30:33;15.82;;;9.68;;
68225;SDS011;55045;49.410;11.030;2022-07-23T02:33:36;18.50;;;9.77;;
68225;SDS011;55045;49.410;11.030;2022-07-23T02:36:40;14.02;;;10.10;;
68225;SDS011;55045;49.410;11.030;2022-07-23T02:39:45;14.85;;;9.93;;
68225;SDS011;55045;49.410;11.030;2022-07-23T02:42:49;16.45;;;10.48;;
68225;SDS011;55045;49.410;11.030;2022-07-23T02:45:53;13.45;;;9.85;;
68225;SDS011;55045;49.410;11.030;2022-07-23T02:48:58;12.82;;;9.10;;
68225;SDS011;55045;49.410;11.030;2022-07-23T02:52:04;14.60;;;10.25;;
68225;SDS011;55045;49.410;11.030;2022-07-23T02:55:09;14.40;;;10.50;;
68225;SDS011;55045;49.410;11.030;2022-07-23T02:58:13;14.70;;;10.63;;
68225;SDS011;55045;49.410;11.030;2022-07-23T03:01:18;16.20;;;12.00;;
68225;SDS011;55045;49.410;11.030;2022-07-23T03:04:22;15.63;;;12.10;;
68225;SDS011;55045;49.410;11.030;2022-07-23T03:07:25;21.25;;;13.10;;
68225;SDS011;55045;49.410;11.030;2022-07-23T03:10:30;15.95;;;12.30;;
68225;SDS011;55045;49.410;11.030;2022-07-23T03:13:33;20.48;;;13.52;;
68225;SDS011;55045;49.410;11.030;2022-07-23T03:16:37;17.83;;;13.43;;
68225;SDS011;55045;49.410;11.030;2022-07-23T03:19:46;17.10;;;12.98;;
68225;SDS011;55045;49.410;11.030;2022-07-23T03:22:49;17.15;;;12.70;;
68225;SDS011;55045;49.410;11.030;2022-07-23T03:25:54;14.85;;;11.82;;
68225;SDS011;55045;49.410;11.030;2022-07-23T03:28:57;16.15;;;11.57;;
68225;SDS011;55045;49.410;11.030;2022-07-23T03:34:52;14.88;;;11.35;;
68225;SDS011;55045;49.410;11.030;2022-07-23T03:37:56;17.20;;;12.13;;
68225;SDS011;55045;49.410;11.030;2022-07-23T03:41:00;14.48;;;11.30;;
68225;SDS011;55045;49.410;11.030;2022-07-23T03:44:07;15.35;;;10.63;;
68225;SDS011;55045;49.410;11.030;2022-07-23T03:47:10;15.18;;;12.20;;
68225;SDS011;55045;49.410;11.030;2022-07-23T03:50:15;15.52;;;12.93;;
68225;SDS011;55045;49.410;11.030;2022-07-23T03:53:18;15.40;;;12.57;;
68225;SDS011;55045;49.410;11.030;2022-07-23T03:56:21;13.55;;;11.52;;
68225;SDS011;55045;49.410;11.030;2022-07-23T03:59:25;17.52;;;11.63;;
68225;SDS011;55045;49.410;11.030;2022-07-23T04:02:28;15.00;;;10.80;;
68225;SDS011;55045;49.410;11.030;2022-07-23T04:05:33;16.92;;;10.95;;
68225;SDS011;55045;49.410;11.030;2022-07-23T04:08:41;14.55;;;9.75;;
68225;SDS011;55045;49.410;11.030;2022-07-23T04:11:44;16.48;;;10.93;;
68225;SDS011;55045;49.410;11.030;2022-07-23T04:14:47;15.20;;;10.15;;
68225;SDS011;55045;49.410;11.030;2022-07-23T04:17:50;13.27;;;10.13;;
68225;SDS011;55045;49.410;11.030;2022-07-23T04:20:56;18.10;;;10.82;;
68225;SDS011;55045;49.410;11.030;2022-07-23T04:24:00;16.60;;;9.88;;
68225;SDS011;55045;49.410;11.030;2022-07-23T04:27:03;13.57;;;9.90;;
68225;SDS011;55045;49.410;11.030;2022-07-23T04:30:07;14.57;;;9.77;;
68225;SDS011;55045;49.410;11.030;2022-07-23T04:33:11;15.38;;;10.23;;
68225;SDS011;55045;49.410;11.030;2022-07-23T04:36:16;14.63;;;11.30;;
68225;SDS011;55045;49.410;11.030;2022-07-23T04:39:20;17.25;;;10.45;;
68225;SDS011;55045;49.410;11.030;2022-07-23T04:42:24;16.98;;;10.07;;
68225;SDS011;55045;49.410;11.030;2022-07-23T04:45:27;13.25;;;9.82;;
68225;SDS011;55045;49.410;11.030;2022-07-23T04:48:51;13.48;;;10.23;;
68225;SDS011;55045;49.410;11.030;2022-07-23T04:52:16;15.07;;;9.13;;
68225;SDS011;55045;49.410;11.030;2022-07-23T04:55:19;14.82;;;9.98;;
68225;SDS011;55045;49.410;11.030;2022-07-23T04:58:23;13.05;;;8.88;;
68225;SDS011;55045;49.410;11.030;2022-07-23T05:01:27;13.43;;;7.40;;
68225;SDS011;55045;49.410;11.030;2022-07-23T05:04:31;9.38;;;7.15;;
68225;SDS011;55045;49.410;11.030;2022-07-23T05:07:37;9.68;;;7.03;;
68225;SDS011;55045;49.410;11.030;2022-07-23T05:10:43;10.23;;;7.00;;
68225;SDS011;55045;49.410;11.030;2022-07-23T05:13:48;8.43;;;7.10;;
68225;SDS011;55045;49.410;11.030;2022-07-23T05:16:51;8.48;;;6.22;;
68225;SDS011;55045;49.410;11.030;2022-07-23T05:19:57;7.97;;;6.38;;
68225;SDS011;55045;49.410;11.030;2022-07-23T05:23:04;8.07;;;6.45;;
68225;SDS011;55045;49.410;11.030;2022-07-23T05:26:07;8.38;;;6.47;;
68225;SDS011;55045;49.410;11.030;2022-07-23T05:29:11;10.45;;;6.22;;
68225;SDS011;55045;49.410;11.030;2022-07-23T05:32:14;9.57;;;6.15;;
68225;SDS011;55045;49.410;11.030;2022-07-23T05:35:24;8.80;;;6.25;;
68225;SDS011;55045;49.410;11.030;2022-07-23T05:38:58;7.57;;;5.60;;
68225;SDS011;55045;49.410;11.030;2022-07-23T05:42:05;8.20;;;4.90;;
68225;SDS011;55045;49.410;11.030;2022-07-23T05:45:10;6.00;;;4.85;;
68225;SDS011;55045;49.410;11.030;2022-07-23T05:48:17;6.47;;;4.85;;
68225;SDS011;55045;49.410;11.030;2022-07-23T05:51:40;6.93;;;4.43;;
68225;SDS011;55045;49.410;11.030;2022-07-23T05:55:09;10.18;;;4.78;;
68225;SDS011;55045;49.410;11.030;2022-07-23T06:01:18;8.10;;;4.68;;
68225;SDS011;55045;49.410;11.030;2022-07-23T06:04:34;10.27;;;4.95;;
68225;SDS011;55045;49.410;11.030;2022-07-23T06:07:56;5.82;;;4.40;;
68225;SDS011;55045;49.410;11.030;2022-07-23T06:11:02;6.03;;;4.45;;
68225;SDS011;55045;49.410;11.030;2022-07-23T06:14:06;4.97;;;4.50;;
68225;SDS011;55045;49.410;11.030;2022-07-23T06:17:30;6.38;;;4.65;;
68225;SDS011;55045;49.410;11.030;2022-07-23T06:20:33;6.13;;;4.20;;
68225;SDS011;55045;49.410;11.030;2022-07-23T06:23:36;5.35;;;4.47;;
68225;SDS011;55045;49.410;11.030;2022-07-23T06:26:41;6.07;;;4.43;;
68225;SDS011;55045;49.410;11.030;2022-07-23T06:29:44;5.25;;;4.45;;
68225;SDS011;55045;49.410;11.030;2022-07-23T06:32:48;5.68;;;4.97;;
68225;SDS011;55045;49.410;11.030;2022-07-23T06:35:52;7.07;;;4.75;;
68225;SDS011;55045;49.410;11.030;2022-07-23T06:39:15;6.25;;;4.75;;
68225;SDS011;55045;49.410;11.030;2022-07-23T06:42:24;5.55;;;4.93;;
68225;SDS011;55045;49.410;11.030;2022-07-23T06:45:32;5.65;;;5.05;;
68225;SDS011;55045;49.410;11.030;2022-07-23T06:48:35;7.03;;;5.35;;
68225;SDS011;55045;49.410;11.030;2022-07-23T06:51:39;6.45;;;5.60;;
68225;SDS011;55045;49.410;11.030;2022-07-23T06:55:02;8.23;;;5.38;;
68225;SDS011;55045;49.410;11.030;2022-07-23T06:58:07;6.20;;;5.50;;
68225;SDS011;55045;49.410;11.030;2022-07-23T07:01:11;7.13;;;5.30;;
68225;SDS011;55045;49.410;11.030;2022-07-23T07:04:15;8.98;;;5.40;;
68225;SDS011;55045;49.410;11.030;2022-07-23T07:07:19;7.20;;;5.25;;
68225;SDS011;55045;49.410;11.030;2022-07-23T07:10:22;7.03;;;5.28;;
68225;SDS011;55045;49.410;11.030;2022-07-23T07:13:27;6.65;;;5.32;;
68225;SDS011;55045;49.410;11.030;2022-07-23T07:16:30;10.57;;;5.30;;
68225;SDS011;55045;49.410;11.030;2022-07-23T07:19:40;10.55;;;6.18;;
68225;SDS011;55045;49.410;11.030;2022-07-23T07:22:43;6.75;;;5.75;;
68225;SDS011;55045;49.410;11.030;2022-07-23T07:25:58;6.68;;;5.60;;
68225;SDS011;55045;49.410;11.030;2022-07-23T07:29:03;10.63;;;6.57;;
68225;SDS011;55045;49.410;11.030;2022-07-23T07:32:06;9.27;;;6.13;;
68225;SDS011;55045;49.410;11.030;2022-07-23T07:35:10;8.27;;;5.60;;
68225;SDS011;55045;49.410;11.030;2022-07-23T07:38:14;8.40;;;6.68;;
68225;SDS011;55045;49.410;11.030;2022-07-23T07:41:17;9.57;;;5.80;;
68225;SDS011;55045;49.410;11.030;2022-07-23T07:44:45;7.43;;;6.63;;
68225;SDS011;55045;49.410;11.030;2022-07-23T07:47:49;7.38;;;5.15;;
68225;SDS011;55045;49.410;11.030;2022-07-23T07:50:52;8.45;;;5.32;;
68225;SDS011;55045;49.410;11.030;2022-07-23T07:53:55;11.73;;;6.32;;
68225;SDS011;55045;49.410;11.030;2022-07-23T07:56:59;7.68;;;5.40;;
68225;SDS011;55045;49.410;11.030;2022-07-23T08:00:10;9.30;;;5.57;;
68225;SDS011;55045;49.410;11.030;2022-07-23T08:03:14;9.65;;;5.85;;
68225;SDS011;55045;49.410;11.030;2022-07-23T08:06:18;9.23;;;5.00;;
68225;SDS011;55045;49.410;11.030;2022-07-23T08:09:23;8.85;;;6.07;;
68225;SDS011;55045;49.410;11.030;2022-07-23T08:12:26;9.40;;;5.85;;
68225;SDS011;55045;49.410;11.030;2022-07-23T08:15:31;7.82;;;6.32;;
68225;SDS011;55045;49.410;11.030;2022-07-23T08:18:35;9.70;;;6.10;;
68225;SDS011;55045;49.410;11.030;2022-07-23T08:21:39;13.23;;;5.65;;
68225;SDS011;55045;49.410;11.030;2022-07-23T08:24:42;7.47;;;6.18;;
68225;SDS011;55045;49.410;11.030;2022-07-23T08:27:45;7.38;;;5.97;;
68225;SDS011;55045;49.410;11.030;2022-07-23T08:30:50;7.88;;;5.70;;
68225;SDS011;55045;49.410;11.030;2022-07-23T08:33:53;12.93;;;5.20;;
68225;SDS011;55045;49.410;11.030;2022-07-23T08:36:58;8.52;;;5.75;;
68225;SDS011;55045;49.410;11.030;2022-07-23T08:40:03;22.40;;;10.68;;
68225;SDS011;55045;49.410;11.030;2022-07-23T08:43:08;8.48;;;6.18;;
68225;SDS011;55045;49.410;11.030;2022-07-23T08:46:14;6.53;;;4.72;;
68225;SDS011;55045;49.410;11.030;2022-07-23T08:49:22;6.07;;;5.40;;
68225;SDS011;55045;49.410;11.030;2022-07-23T08:52:26;6.80;;;5.20;;
68225;SDS011;55045;49.410;11.030;2022-07-23T08:55:30;8.30;;;4.78;;
68225;SDS011;55045;49.410;11.030;2022-07-23T08:58:35;7.75;;;5.45;;
68225;SDS011;55045;49.410;11.030;2022-07-23T09:01:40;8.52;;;5.20;;
68225;SDS011;55045;49.410;11.030;2022-07-23T09:04:43;8.05;;;4.72;;
68225;SDS011;55045;49.410;11.030;2022-07-23T09:08:03;10.90;;;5.85;;
68225;SDS011;55045;49.410;11.030;2022-07-23T09:11:11;6.53;;;5.05;;
68225;SDS011;55045;49.410;11.030;2022-07-23T09:14:15;13.23;;;6.07;;
68225;SDS011;55045;49.410;11.030;2022-07-23T09:17:41;12.70;;;6.57;;
68225;SDS011;55045;49.410;11.030;2022-07-23T09:20:45;11.20;;;6.45;;
68225;SDS011;55045;49.410;11.030;2022-07-23T09:23:50;9.73;;;6.07;;
68225;SDS011;55045;49.410;11.030;2022-07-23T09:26:56;8.05;;;5.95;;
68225;SDS011;55045;49.410;11.030;2022-07-23T09:29:59;8.73;;;5.53;;
68225;SDS011;55045;49.410;11.030;2022-07-23T09:34:48;7.32;;;6.05;;
68225;SDS011;55045;49.410;11.030;2022-07-23T09:38:00;9.52;;;8.13;;
68225;SDS011;55045;49.410;11.030;2022-07-23T09:41:07;9.00;;;8.10;;
68225;SDS011;55045;49.410;11.030;2022-07-23T09:44:12;10.10;;;9.10;;
68225;SDS011;55045;49.410;11.030;2022-07-23T09:47:18;11.45;;;8.80;;
68225;SDS011;55045;49.410;11.030;2022-07-23T09:50:25;13.43;;;10.48;;
68225;SDS011;55045;49.410;11.030;2022-07-23T09:53:29;9.93;;;8.88;;
68225;SDS011;55045;49.410;11.030;2022-07-23T09:56:32;13.93;;;10.13;;
68225;SDS011;55045;49.410;11.030;2022-07-23T09:59:39;14.07;;;10.93;;
68225;SDS011;55045;49.410;11.030;2022-07-23T10:02:43;14.77;;;10.00;;
68225;SDS011;55045;49.410;11.030;2022-07-23T10:06:03;12.65;;;10.32;;
68225;SDS011;55045;49.410;11.030;2022-07-23T10:09:40;12.43;;;10.50;;
68225;SDS011;55045;49.410;11.030;2022-07-23T10:13:05;11.45;;;10.35;;
68225;SDS011;55045;49.410;11.030;2022-07-23T10:16:39;9.85;;;7.55;;
68225;SDS011;55045;49.410;11.030;2022-07-23T10:19:43;11.65;;;9.55;;
68225;SDS011;55045;49.410;11.030;2022-07-23T10:22:50;10.32;;;9.30;;
68225;SDS011;55045;49.410;11.030;2022-07-23T10:26:05;14.57;;;11.00;;
68225;SDS011;55045;49.410;11.030;2022-07-23T10:29:18;11.43;;;9.57;;
68225;SDS011;55045;49.410;11.030;2022-07-23T10:32:36;14.07;;;10.43;;
68225;SDS011;55045;49.410;11.030;2022-07-23T10:35:48;13.18;;;10.52;;
68225;SDS011;55045;49.410;11.030;2022-07-23T10:39:03;15.63;;;14.02;;
68225;SDS011;55045;49.410;11.030;2022-07-23T10:42:09;15.15;;;12.85;;
68225;SDS011;55045;49.410;11.030;2022-07-23T10:48:41;13.45;;;11.73;;
68225;SDS011;55045;49.410;11.030;2022-07-23T10:58:51;13.38;;;11.25;;
68225;SDS011;55045;49.410;11.030;2022-07-23T11:01:55;15.45;;;11.63;;
68225;SDS011;55045;49.410;11.030;2022-07-23T11:05:38;15.73;;;11.63;;
68225;SDS011;55045;49.410;11.030;2022-07-23T11:08:44;14.18;;;9.88;;
68225;SDS011;55045;49.410;11.030;2022-07-23T11:11:47;13.63;;;11.40;;
68225;SDS011;55045;49.410;11.030;2022-07-23T11:15:00;11.27;;;7.82;;
68225;SDS011;55045;49.410;11.030;2022-07-23T11:18:08;8.82;;;8.02;;
68225;SDS011;55045;49.410;11.030;2022-07-23T11:24:51;13.82;;;11.32;;
68225;SDS011;55045;49.410;11.030;2022-07-23T11:27:54;11.25;;;9.85;;
68225;SDS011;55045;49.410;11.030;2022-07-23T11:31:16;11.93;;;10.65;;
68225;SDS011;55045;49.410;11.030;2022-07-23T11:34:31;10.70;;;7.45;;
68225;SDS011;55045;49.410;11.030;2022-07-23T11:37:36;10.73;;;6.85;;
68225;SDS011;55045;49.410;11.030;2022-07-23T11:40:41;9.27;;;6.40;;
68225;SDS011;55045;49.410;11.030;2022-07-23T11:43:46;10.73;;;7.13;;
68225;SDS011;55045;49.410;11.030;2022-07-23T11:46:53;10.63;;;7.38;;
68225;SDS011;55045;49.410;11.030;2022-07-23T11:50:19;10.40;;;6.32;;
68225;SDS011;55045;49.410;11.030;2022-07-23T11:53:26;7.90;;;6.57;;
68225;SDS011;55045;49.410;11.030;2022-07-23T11:56:32;7.13;;;5.80;;
68225;SDS011;55045;49.410;11.030;2022-07-23T11:59:37;8.38;;;6.28;;
68225;SDS011;55045;49.410;11.030;2022-07-23T12:02:42;11.38;;;6.70;;
68225;SDS011;55045;49.410;11.030;2022-07-23T12:05:49;8.77;;;6.57;;
68225;SDS011;55045;49.410;11.030;2022-07-23T12:08:52;8.15;;;6.90;;
68225;SDS011;55045;49.410;11.030;2022-07-23T12:11:56;8.45;;;6.65;;
68225;SDS011;55045;49.410;11.030;2022-07-23T12:15:00;9.95;;;7.88;;
68225;SDS011;55045;49.410;11.030;2022-07-23T12:18:04;3.50;;;2.55;;
68225;SDS011;55045;49.410;11.030;2022-07-23T12:21:10;4.53;;;3.50;;
68225;SDS011;55045;49.410;11.030;2022-07-23T12:24:13;2.08;;;1.90;;
68225;SDS011;55045;49.410;11.030;2022-07-23T12:27:19;9.25;;;5.95;;
68225;SDS011;55045;49.410;11.030;2022-07-23T12:30:24;2.65;;;2.45;;
68225;SDS011;55045;49.410;11.030;2022-07-23T12:33:37;2.08;;;1.88;;
68225;SDS011;55045;49.410;11.030;2022-07-23T12:36:43;3.10;;;2.78;;
68225;SDS011;55045;49.410;11.030;2022-07-23T12:39:47;2.95;;;2.33;;
68225;SDS011;55045;49.410;11.030;2022-07-23T12:42:52;3.38;;;2.70;;
68225;SDS011;55045;49.410;11.030;2022-07-23T12:46:02;3.90;;;2.70;;
68225;SDS011;55045;49.410;11.030;2022-07-23T12:49:07;4.85;;;2.50;;
68225;SDS011;55045;49.410;11.030;2022-07-23T12:52:16;3.65;;;2.60;;
68225;SDS011;55045;49.410;11.030;2022-07-23T12:55:26;2.95;;;2.13;;
68225;SDS011;55045;49.410;11.030;2022-07-23T12:58:41;4.85;;;2.78;;
68225;SDS011;55045;49.410;11.030;2022-07-23T13:01:54;5.60;;;2.53;;
68225;SDS011;55045;49.410;11.030;2022-07-23T13:05:00;4.80;;;2.67;;
68225;SDS011;55045;49.410;11.030;2022-07-23T13:08:04;4.32;;;2.25;;
68225;SDS011;55045;49.410;11.030;2022-07-23T13:11:08;4.95;;;2.53;;
68225;SDS011;55045;49.410;11.030;2022-07-23T13:14:12;3.30;;;2.13;;
68225;SDS011;55045;49.410;11.030;2022-07-23T13:17:18;6.55;;;2.85;;
68225;SDS011;55045;49.410;11.030;2022-07-23T13:20:23;6.40;;;4.07;;
68225;SDS011;55045;49.410;11.030;2022-07-23T13:23:28;5.53;;;3.38;;
68225;SDS011;55045;49.410;11.030;2022-07-23T13:26:48;5.55;;;3.13;;
68225;SDS011;55045;49.410;11.030;2022-07-23T13:29:53;4.60;;;2.70;;
68225;SDS011;55045;49.410;11.030;2022-07-23T13:32:56;3.40;;;2.10;;
68225;SDS011;55045;49.410;11.030;2022-07-23T13:36:02;6.30;;;5.57;;
68225;SDS011;55045;49.410;11.030;2022-07-23T13:39:08;7.95;;;5.90;;
68225;SDS011;55045;49.410;11.030;2022-07-23T13:42:31;6.22;;;5.63;;
68225;SDS011;55045;49.410;11.030;2022-07-23T13:45:55;8.82;;;5.60;;
68225;SDS011;55045;49.410;11.030;2022-07-23T13:49:18;7.10;;;6.13;;
68225;SDS011;55045;49.410;11.030;2022-07-23T13:52:23;7.57;;;6.22;;
68225;SDS011;55045;49.410;11.030;2022-07-23T13:55:29;7.95;;;6.38;;
68225;SDS011;55045;49.410;11.030;2022-07-23T13:58:34;8.27;;;5.70;;
68225;SDS011;55045;49.410;11.030;2022-07-23T14:01:38;7.47;;;5.60;;
68225;SDS011;55045;49.410;11.030;2022-07-23T14:05:01;7.10;;;5.55;;
68225;SDS011;55045;49.410;11.030;2022-07-23T14:08:05;8.55;;;6.32;;
68225;SDS011;55045;49.410;11.030;2022-07-23T14:11:11;7.82;;;5.95;;
68225;SDS011;55045;49.410;11.030;2022-07-23T14:14:14;8.10;;;5.32;;
68225;SDS011;55045;49.410;11.030;2022-07-23T14:17:18;6.13;;;5.15;;
68225;SDS011;55045;49.410;11.030;2022-07-23T14:20:22;7.22;;;5.50;;
68225;SDS011;55045;49.410;11.030;2022-07-23T14:23:25;7.28;;;5.22;;
68225;SDS011;55045;49.410;11.030;2022-07-23T14:26:32;6.82;;;5.50;;
68225;SDS011;55045;49.410;11.030;2022-07-23T14:29:37;8.65;;;5.93;;
68225;SDS011;55045;49.410;11.030;2022-07-23T14:32:44;7.63;;;6.45;;
68225;SDS011;55045;49.410;11.030;2022-07-23T14:35:47;6.53;;;5.38;;
68225;SDS011;55045;49.410;11.030;2022-07-23T14:38:51;7.20;;;6.18;;
68225;SDS011;55045;49.410;11.030;2022-07-23T14:41:56;6.68;;;5.95;;
68225;SDS011;55045;49.410;11.030;2022-07-23T14:44:59;8.45;;;5.63;;
68225;SDS011;55045;49.410;11.030;2022-07-23T14:48:11;8.20;;;6.15;;
68225;SDS011;55045;49.410;11.030;2022-07-23T14:51:17;6.90;;;5.82;;
68225;SDS011;55045;49.410;11.030;2022-07-23T14:54:20;8.52;;;5.93;;
68225;SDS011;55045;49.410;11.030;2022-07-23T14:57:25;7.78;;;5.65;;
68225;SDS011;55045;49.410;11.030;2022-07-23T15:00:29;8.45;;;5.50;;
68225;SDS011;55045;49.410;11.030;2022-07-23T15:03:33;7.00;;;5.90;;
68225;SDS011;55045;49.410;11.030;2022-07-23T15:06:43;8.65;;;5.45;;
68225;SDS011;55045;49.410;11.030;2022-07-23T15:09:47;6.85;;;5.60;;
68225;SDS011;55045;49.410;11.030;2022-07-23T15:12:52;7.78;;;5.65;;
68225;SDS011;55045;49.410;11.030;2022-07-23T15:15:56;8.15;;;5.85;;
68225;SDS011;55045;49.410;11.030;2022-07-23T15:18:59;6.10;;;5.47;;
68225;SDS011;55045;49.410;11.030;2022-07-23T15:22:04;7.18;;;5.35;;
68225;SDS011;55045;49.410;11.030;2022-07-23T15:25:09;8.40;;;5.35;;
68225;SDS011;55045;49.410;11.030;2022-07-23T15:28:15;7.68;;;5.85;;
68225;SDS011;55045;49.410;11.030;2022-07-23T15:34:46;6.90;;;5.25;;
68225;SDS011;55045;49.410;11.030;2022-07-23T15:37:50;8.38;;;5.82;;
68225;SDS011;55045;49.410;11.030;2022-07-23T15:40:55;6.13;;;5.50;;
68225;SDS011;55045;49.410;11.030;2022-07-23T15:44:00;7.32;;;5.55;;
68225;SDS011;55045;49.410;11.030;2022-07-23T15:47:23;6.60;;;5.30;;
68225;SDS011;55045;49.410;11.030;2022-07-23T15:50:31;8.50;;;5.00;;
68225;SDS011;55045;49.410;11.030;2022-07-23T15:53:34;6.63;;;5.57;;
68225;SDS011;55045;49.410;11.030;2022-07-23T15:56:38;7.82;;;6.70;;
68225;SDS011;55045;49.410;11.030;2022-07-23T15:59:43;6.25;;;5.22;;
68225;SDS011;55045;49.410;11.030;2022-07-23T16:02:48;6.22;;;5.45;;
68225;SDS011;55045;49.410;11.030;2022-07-23T16:05:53;8.32;;;5.60;;
68225;SDS011;55045;49.410;11.030;2022-07-23T16:08:56;6.57;;;5.40;;
68225;SDS011;55045;49.410;11.030;2022-07-23T16:12:05;8.27;;;5.60;;
68225;SDS011;55045;49.410;11.030;2022-07-23T16:15:09;8.30;;;5.90;;
68225;SDS011;55045;49.410;11.030;2022-07-23T16:18:12;6.97;;;6.10;;
68225;SDS011;55045;49.410;11.030;2022-07-23T16:21:18;8.68;;;5.78;;
68225;SDS011;55045;49.410;11.030;2022-07-23T16:24:21;12.68;;;5.80;;
68225;SDS011;55045;49.410;11.030;2022-07-23T16:27:25;6.78;;;5.47;;
68225;SDS011;55045;49.410;11.030;2022-07-23T16:30:28;11.52;;;5.90;;
68225;SDS011;55045;49.410;11.030;2022-07-23T16:33:33;9.02;;;5.80;;
68225;SDS011;55045;49.410;11.030;2022-07-23T16:36:38;6.82;;;5.80;;
68225;SDS011;55045;49.410;11.030;2022-07-23T16:39:42;7.95;;;5.80;;
68225;SDS011;55045;49.410;11.030;2022-07-23T16:42:45;10.07;;;6.30;;
68225;SDS011;55045;49.410;11.030;2022-07-23T16:45:54;6.97;;;5.70;;
68225;SDS011;55045;49.410;11.030;2022-07-23T16:48:57;7.00;;;6.28;;
68225;SDS011;55045;49.410;11.030;2022-07-23T16:52:12;8.00;;;5.78;;
68225;SDS011;55045;49.410;11.030;2022-07-23T16:55:15;6.97;;;5.30;;
68225;SDS011;55045;49.410;11.030;2022-07-23T16:58:23;8.07;;;6.68;;
68225;SDS011;55045;49.410;11.030;2022-07-23T17:01:27;6.60;;;5.97;;
68225;SDS011;55045;49.410;11.030;2022-07-23T17:04:34;12.63;;;6.35;;
68225;SDS011;55045;49.410;11.030;2022-07-23T17:07:42;8.87;;;5.43;;
68225;SDS011;55045;49.410;11.030;2022-07-23T17:10:45;7.28;;;5.75;;
68225;SDS011;55045;49.410;11.030;2022-07-23T17:13:55;7.93;;;6.22;;
68225;SDS011;55045;49.410;11.030;2022-07-23T17:17:04;10.65;;;5.80;;
68225;SDS011;55045;49.410;11.030;2022-07-23T17:20:08;8.13;;;5.68;;
68225;SDS011;55045;49.410;11.030;2022-07-23T17:23:14;8.05;;;5.93;;
68225;SDS011;55045;49.410;11.030;2022-07-23T17:26:18;8.48;;;5.60;;
68225;SDS011;55045;49.410;11.030;2022-07-23T17:29:23;7.63;;;5.82;;
68225;SDS011;55045;49.410;11.030;2022-07-23T17:32:26;7.05;;;5.40;;
68225;SDS011;55045;49.410;11.030;2022-07-23T17:35:29;8.60;;;5.18;;
68225;SDS011;55045;49.410;11.030;2022-07-23T17:38:34;7.07;;;5.63;;
68225;SDS011;55045;49.410;11.030;2022-07-23T17:41:37;7.90;;;5.57;;
68225;SDS011;55045;49.410;11.030;2022-07-23T17:44:51;7.05;;;5.50;;
68225;SDS011;55045;49.410;11.030;2022-07-23T17:47:56;7.82;;;5.70;;
68225;SDS011;55045;49.410;11.030;2022-07-23T17:50:59;10.48;;;5.47;;
68225;SDS011;55045;49.410;11.030;2022-07-23T17:54:05;8.68;;;5.72;;
68225;SDS011;55045;49.410;11.030;2022-07-23T17:57:08;7.22;;;5.05;;
68225;SDS011;55045;49.410;11.030;2022-07-23T18:00:12;9.20;;;6.85;;
68225;SDS011;55045;49.410;11.030;2022-07-23T18:03:19;6.50;;;5.35;;
68225;SDS011;55045;49.410;11.030;2022-07-23T18:06:22;7.18;;;5.50;;
68225;SDS011;55045;49.410;11.030;2022-07-23T18:09:30;7.05;;;5.43;;
68225;SDS011;55045;49.410;11.030;2022-07-23T18:12:34;7.57;;;5.72;;
68225;SDS011;55045;49.410;11.030;2022-07-23T18:15:37;7.13;;;5.70;;
68225;SDS011;55045;49.410;11.030;2022-07-23T18:18:41;9.80;;;5.80;;
68225;SDS011;55045;49.410;11.030;2022-07-23T18:21:44;6.68;;;5.50;;
68225;SDS011;55045;49.410;11.030;2022-07-23T18:24:49;6.53;;;5.55;;
68225;SDS011;55045;49.410;11.030;2022-07-23T18:27:52;7.93;;;6.00;;
68225;SDS011;55045;49.410;11.030;2022-07-23T18:30:56;7.95;;;6.30;;
68225;SDS011;55045;49.410;11.030;2022-07-23T18:33:59;7.68;;;5.85;;
68225;SDS011;55045;49.410;11.030;2022-07-23T18:37:03;7.43;;;5.80;;
68225;SDS011;55045;49.410;11.030;2022-07-23T18:40:08;6.53;;;5.30;;
68225;SDS011;55045;49.410;11.030;2022-07-23T18:43:12;9.50;;;6.18;;